Map

Track Data

SID SEASON NUMBER BASIN SUBBASIN NAME ISO_TIME NATURE LAT LON WMO_WIND WMO_PRES WMO_AGENCY TRACK_TYPE DIST2LAND LANDFALL IFLAG USA_AGENCY USA_ATCF_ID USA_LAT USA_LON USA_RECORD USA_STATUS USA_WIND USA_PRES USA_SSHS USA_R34_NE USA_R34_SE USA_R34_SW USA_R34_NW USA_R50_NE USA_R50_SE USA_R50_SW USA_R50_NW USA_R64_NE USA_R64_SE USA_R64_SW USA_R64_NW USA_POCI USA_ROCI USA_RMW USA_EYE TOKYO_LAT TOKYO_LON TOKYO_GRADE TOKYO_WIND TOKYO_PRES TOKYO_R50_DIR TOKYO_R50_LONG TOKYO_R50_SHORT TOKYO_R30_DIR TOKYO_R30_LONG TOKYO_R30_SHORT TOKYO_LAND CMA_LAT CMA_LON CMA_CAT CMA_WIND CMA_PRES HKO_LAT HKO_LON HKO_CAT HKO_WIND HKO_PRES NEWDELHI_LAT NEWDELHI_LON NEWDELHI_GRADE NEWDELHI_WIND NEWDELHI_PRES NEWDELHI_CI NEWDELHI_DP NEWDELHI_POCI REUNION_LAT REUNION_LON REUNION_TYPE REUNION_WIND REUNION_PRES REUNION_TNUM REUNION_CI REUNION_RMW REUNION_R34_NE REUNION_R34_SE REUNION_R34_SW REUNION_R34_NW REUNION_R50_NE REUNION_R50_SE REUNION_R50_SW REUNION_R50_NW REUNION_R64_NE REUNION_R64_SE REUNION_R64_SW REUNION_R64_NW BOM_LAT BOM_LON BOM_TYPE BOM_WIND BOM_PRES BOM_TNUM BOM_CI BOM_RMW BOM_R34_NE BOM_R34_SE BOM_R34_SW BOM_R34_NW BOM_R50_NE BOM_R50_SE BOM_R50_SW BOM_R50_NW BOM_R64_NE BOM_R64_SE BOM_R64_SW BOM_R64_NW BOM_ROCI BOM_POCI BOM_EYE BOM_POS_METHOD BOM_PRES_METHOD NADI_LAT NADI_LON NADI_CAT NADI_WIND NADI_PRES WELLINGTON_LAT WELLINGTON_LON WELLINGTON_WIND WELLINGTON_PRES DS824_LAT DS824_LON DS824_STAGE DS824_WIND DS824_PRES TD9636_LAT TD9636_LON TD9636_STAGE TD9636_WIND TD9636_PRES TD9635_LAT TD9635_LON TD9635_WIND TD9635_PRES TD9635_ROCI NEUMANN_LAT NEUMANN_LON NEUMANN_CLASS NEUMANN_WIND NEUMANN_PRES MLC_LAT MLC_LON MLC_CLASS MLC_WIND MLC_PRES USA_GUST BOM_GUST BOM_GUST_PER REUNION_GUST REUNION_GUST_PER USA_SEAHGT USA_SEARAD_NE USA_SEARAD_SE USA_SEARAD_SW USA_SEARAD_NW STORM_SPEED STORM_DIR
1960247N12268 1960 66 EP MM FERNANDA 1960-09-03 00:00:00 TS 12.0000 -92.0000 75 hurdat_epa main 225 223 O________OO___ hurdat_epa EP061960 12.0000 -92.0000 HU 75 1 12.0000 -92.0000 TC 75 12.0000 -92.0000 4 13 283
1960247N12268 1960 66 EP MM FERNANDA 1960-09-03 03:00:00 TS 12.1523 -92.6545 main 243 243 P________PP___ EP061960 12.1478 -92.6574 HU 75 1 12.1478 -92.6574 TC 75 12.1700 -92.6429 4 13 284
1960247N12268 1960 66 EP MM FERNANDA 1960-09-03 06:00:00 TS 12.3063 -93.2958 75 hurdat_epa main 267 267 O________OP___ hurdat_epa EP061960 12.3000 -93.3000 HU 75 1 12.3000 -93.3000 TC 75 12.3314 -93.2790 4 13 284
1960247N12268 1960 66 EP MM FERNANDA 1960-09-03 09:00:00 TS 12.4613 -93.9121 main 289 289 P________PP___ EP061960 12.4574 -93.9150 HU 75 1 12.4574 -93.9150 TC 75 12.4771 -93.9007 4 12 284
1960247N12268 1960 66 EP MM FERNANDA 1960-09-03 12:00:00 TS 12.6000 -94.5000 75 hurdat_epa main 326 326 O________OO___ hurdat_epa EP061960 12.6000 -94.5000 HU 75 1 12.6000 -94.5000 TC 75 12.6000 -94.5000 4 11 282
1960247N12268 1960 66 EP MM FERNANDA 1960-09-03 15:00:00 TS 12.7054 -95.0605 main 356 331 P________PP___ EP061960 12.7073 -95.0576 HU 75 1 12.7073 -95.0576 TC 75 12.6976 -95.0721 4 11 280
1960247N12268 1960 66 EP MM FERNANDA 1960-09-03 18:00:00 TS 12.7969 -95.6047 75 hurdat_epa main 331 307 O________OP___ hurdat_epa EP061960 12.8000 -95.6000 HU 75 1 12.8000 -95.6000 TC 75 12.7843 -95.6233 4 11 280
1960247N12268 1960 66 EP MM FERNANDA 1960-09-03 21:00:00 TS 12.8837 -96.1527 main 305 291 P________PP___ EP061960 12.8849 -96.1501 HU 75 1 12.8849 -96.1501 TC 75 12.8788 -96.1628 4 11 281
1960247N12268 1960 66 EP MM FERNANDA 1960-09-04 00:00:00 TS 13.0000 -96.7000 75 hurdat_epa main 291 276 O________OO___ hurdat_epa EP061960 13.0000 -96.7000 HU 75 1 13.0000 -96.7000 TC 75 13.0000 -96.7000 4 11 286
1960247N12268 1960 66 EP MM FERNANDA 1960-09-04 03:00:00 TS 13.1861 -97.2491 main 276 271 P________PP___ EP061960 13.1849 -97.2500 HU 75 1 13.1849 -97.2500 TC 75 13.1911 -97.2456 4 11 291
1960247N12268 1960 66 EP MM FERNANDA 1960-09-04 06:00:00 TS 13.4014 -97.7984 75 hurdat_epa main 278 272 O________OP___ hurdat_epa EP061960 13.4000 -97.8000 HU 75 1 13.4000 -97.8000 TC 75 13.4069 -97.7920 4 12 292
1960247N12268 1960 66 EP MM FERNANDA 1960-09-04 09:00:00 TS 13.6218 -98.3484 main 273 264 P________PP___ EP061960 13.6224 -98.3499 HU 75 1 13.6224 -98.3499 TC 75 13.6192 -98.3425 4 11 290
1960247N12268 1960 66 EP MM FERNANDA 1960-09-04 12:00:00 TS 13.8000 -98.9000 75 hurdat_epa main 273 273 O________OO___ hurdat_epa EP061960 13.8000 -98.9000 HU 75 1 13.8000 -98.9000 TC 75 13.8000 -98.9000 4 11 282
1960247N12268 1960 66 EP MM FERNANDA 1960-09-04 15:00:00 TS 13.8578 -99.4530 main 285 285 P________PP___ EP061960 13.8648 -99.4427 HU 75 1 13.8648 -99.4427 TC 75 13.8298 -99.4939 4 11 275
1960247N12268 1960 66 EP MM FERNANDA 1960-09-04 18:00:00 TS 13.8875 -100.018 75 hurdat_epa main 307 307 O________OP___ hurdat_epa EP061960 13.9000 -100.000 HU 75 1 13.9000 -100.000 TC 75 13.8377 -100.090 4 11 273
1960247N12268 1960 66 EP MM FERNANDA 1960-09-04 21:00:00 TS 13.9204 -100.620 main 327 324 P________PP___ EP061960 13.9250 -100.608 HU 75 1 13.9250 -100.608 TC 75 13.9017 -100.666 4 12 280
1960247N12268 1960 66 EP MM FERNANDA 1960-09-05 00:00:00 TS 14.1000 -101.200 75 hurdat_epa main 332 313 O________OO___ hurdat_epa EP061960 14.1000 -101.200 HU 75 1 14.1000 -101.200 TC 75 14.1000 -101.200 4 13 301
1960247N12268 1960 66 EP MM FERNANDA 1960-09-05 03:00:00 TS 14.5783 -101.728 main 306 262 P________PP___ EP061960 14.5749 -101.737 HU 75 1 14.5749 -101.737 TC 75 14.5918 -101.691 4 15 319
1960247N12268 1960 66 EP MM FERNANDA 1960-09-05 06:00:00 TS 15.2024 -102.188 75 hurdat_epa main 262 224 O________OP___ hurdat_epa EP061960 15.2000 -102.200 HU 75 1 15.2000 -102.200 TC 75 15.2121 -102.138 4 15 327
1960247N12268 1960 66 EP MM FERNANDA 1960-09-05 09:00:00 TS 15.8462 -102.578 main 231 179 P________PP___ EP061960 15.8449 -102.587 HU 75 1 15.8449 -102.587 TC 75 15.8514 -102.541 4 14 330
1960247N12268 1960 66 EP MM FERNANDA 1960-09-05 12:00:00 TS 16.4000 -102.900 75 hurdat_epa main 179 154 O________OO___ hurdat_epa EP061960 16.4000 -102.900 HU 75 1 16.4000 -102.900 TC 75 16.4000 -102.900 4 11 327
1960247N12268 1960 66 EP MM FERNANDA 1960-09-05 15:00:00 TS 16.7227 -103.172 main 158 140 P________PP___ EP061960 16.7174 -103.158 HU 75 1 16.7174 -103.158 TC 75 16.7439 -103.227 4 7 316
1960247N12268 1960 66 EP MM FERNANDA 1960-09-05 18:00:00 TS 16.9159 -103.422 75 hurdat_epa main 144 130 O________OP___ hurdat_epa EP061960 16.9000 -103.400 HU 75 1 16.9000 -103.400 TC 75 16.9794 -103.511 4 6 306
1960247N12268 1960 66 EP MM FERNANDA 1960-09-05 21:00:00 TS 17.1011 -103.713 main 134 127 P________PP___ EP061960 17.0950 -103.700 HU 75 1 17.0950 -103.700 TC 75 17.1253 -103.764 4 6 297
1960247N12268 1960 66 EP MM FERNANDA 1960-09-06 00:00:00 TS 17.2000 -104.000 75 hurdat_epa main 133 133 O________OO___ hurdat_epa EP061960 17.2000 -104.000 HU 75 1 17.2000 -104.000 TC 75 17.2000 -104.000 4 5 279
1960247N12268 1960 66 EP MM FERNANDA 1960-09-06 03:00:00 TS 17.1818 -104.258 main 149 149 P________PP___ EP061960 17.1725 -104.265 HU 75 1 17.1725 -104.265 TC 75 17.2191 -104.232 4 5 260
1960247N12268 1960 66 EP MM FERNANDA 1960-09-06 06:00:00 TS 17.1159 -104.490 75 hurdat_epa main 171 171 O________OP___ hurdat_epa EP061960 17.1000 -104.500 HU 75 1 17.1000 -104.500 TC 75 17.1797 -104.451 4 4 257
1960247N12268 1960 66 EP MM FERNANDA 1960-09-06 09:00:00 TS 17.0870 -104.694 main 184 184 P________PP___ EP061960 17.0774 -104.700 HU 75 1 17.0774 -104.700 TC 75 17.1254 -104.669 4 4 268
1960247N12268 1960 66 EP MM FERNANDA 1960-09-06 12:00:00 TS 17.1000 -104.900 75 hurdat_epa main 200 200 O________OO___ hurdat_epa EP061960 17.1000 -104.900 HU 75 1 17.1000 -104.900 TC 75 17.1000 -104.900 4 4 282
1960247N12268 1960 66 EP MM FERNANDA 1960-09-06 15:00:00 TS 17.1816 -105.140 main 209 209 P________PP___ EP061960 17.1850 -105.135 HU 75 1 17.1850 -105.135 TC 75 17.1681 -105.160 4 5 292
1960247N12268 1960 66 EP MM FERNANDA 1960-09-06 18:00:00 TS 17.2940 -105.407 75 hurdat_epa main 221 218 O________OP___ hurdat_epa EP061960 17.3000 -105.400 HU 75 1 17.3000 -105.400 TC 75 17.2700 -105.435 4 6 292
1960247N12268 1960 66 EP MM FERNANDA 1960-09-06 21:00:00 TS 17.4034 -105.703 main 222 217 P________PP___ EP061960 17.4075 -105.700 HU 75 1 17.4075 -105.700 TC 75 17.3868 -105.717 4 6 290
1960247N12268 1960 66 EP MM FERNANDA 1960-09-07 00:00:00 TS 17.5000 -106.000 75 hurdat_epa main 228 228 O________OO___ hurdat_epa EP061960 17.5000 -106.000 HU 75 1 17.5000 -106.000 TC 75 17.5000 -106.000 4 5 286
1960247N12268 1960 66 EP MM FERNANDA 1960-09-07 03:00:00 TS 17.5547 -106.256 main 238 238 P________PP___ EP061960 17.5499 -106.250 HU 75 1 17.5499 -106.250 TC 75 17.5740 -106.279 4 5 283
1960247N12268 1960 66 EP MM FERNANDA 1960-09-07 06:00:00 TS 17.6085 -106.512 75 hurdat_epa main 253 253 O________OP___ hurdat_epa EP061960 17.6000 -106.500 HU 75 1 17.6000 -106.500 TC 75 17.6424 -106.558 4 5 285
1960247N12268 1960 66 EP MM FERNANDA 1960-09-07 09:00:00 TS 17.6969 -106.806 main 268 268 P________PP___ EP061960 17.6925 -106.800 HU 75 1 17.6925 -106.800 TC 75 17.7146 -106.832 4 6 289
1960247N12268 1960 66 EP MM FERNANDA 1960-09-07 12:00:00 TS 17.8000 -107.100 75 hurdat_epa main 284 283 O________OO___ hurdat_epa EP061960 17.8000 -107.100 HU 75 1 17.8000 -107.100 TC 75 17.8000 -107.100 4 6 291
1960247N12268 1960 66 EP MM FERNANDA 1960-09-07 15:00:00 TS 17.8960 -107.356 main 299 299 P________PP___ EP061960 17.8924 -107.358 HU 75 1 17.8924 -107.358 TC 75 17.9104 -107.349 4 5 294
1960247N12268 1960 66 EP MM FERNANDA 1960-09-07 18:00:00 TS 18.0069 -107.599 75 hurdat_epa main 307 307 O________OP___ hurdat_epa EP061960 18.0000 -107.600 HU 75 1 18.0000 -107.600 TC 75 18.0347 -107.593 4 5 299
1960247N12268 1960 66 EP MM FERNANDA 1960-09-07 21:00:00 TS 18.1473 -107.842 main 318 318 P________PP___ EP061960 18.1424 -107.843 HU 75 1 18.1424 -107.843 TC 75 18.1666 -107.840 4 6 302
1960247N12268 1960 66 EP MM FERNANDA 1960-09-08 00:00:00 TS 18.3000 -108.100 75 hurdat_epa main 332 332 O________OO___ hurdat_epa EP061960 18.3000 -108.100 HU 75 1 18.3000 -108.100 TC 75 18.3000 -108.100 4 6 300
1960247N12268 1960 66 EP MM FERNANDA 1960-09-08 03:00:00 TS 18.4519 -108.390 main 347 347 P________PP___ EP061960 18.4575 -108.392 HU 75 1 18.4575 -108.392 TC 75 18.4297 -108.380 4 6 297
1960247N12268 1960 66 EP MM FERNANDA 1960-09-08 06:00:00 TS 18.5911 -108.695 75 hurdat_epa main 370 370 O________OP___ hurdat_epa EP061960 18.6000 -108.700 HU 75 1 18.6000 -108.700 TC 75 18.5555 -108.677 4 6 294
1960247N12268 1960 66 EP MM FERNANDA 1960-09-08 09:00:00 TS 18.7038 -108.999 main 394 394 P________PP___ EP061960 18.7101 -109.002 HU 75 1 18.7101 -109.002 TC 75 18.6786 -108.986 4 6 290
1960247N12268 1960 66 EP MM FERNANDA 1960-09-08 12:00:00 TS 18.8000 -109.300 75 hurdat_epa main 417 O________OO___ hurdat_epa EP061960 18.8000 -109.300 HU 75 1 18.8000 -109.300 TC 75 18.8000 -109.300 4 6 289

About IBTrACS Database

This database is a web-friendly format of International Best Track Archive for Climate Stewardship (IBTrACS), a global best track data archive curated by NOAA dating back to 1842.

Updated: 2021-12-03